ESGM weather

Öresten Airport
Öresten, Västra Götalands län, Sweden

Public forecast

Using degrees Celsius for public forecast. Weather courtesy of forecast.io.

METAR (pilot weather report)

Closest report is Gothenburg-Landvetter Airport, 17.7 nm (32.7 km) NW. Retrieved 2019/09/15 08:20 UTC (20 minutes ago):

ESGG 150820Z 24013KT 9999 SCT025 BKN039 12/08 Q1005

TAF (pilot weather forecast)

Closest forecast is Gothenburg-Landvetter Airport, 17.7 nm (32.7 km) NW. Retrieved 2019/09/15 06:35 UTC (2 hours ago):

TAF ESGG 150530Z 1506/1606 21022G34KT 4000 RA BKN004 BKN015CB BECMG 1506/1507 27025G37KT 9999 NSW BKN020 BECMG 1522/1524 27015G25KT BECMG 1601/1603 27012KT